Time;durP1;ratioP1;P1;durP2;ratioP2;P2;SDS_P1;SDS_P2;PMS_P1;PMS_P2;Temp;Humidity;BMP_temperature;BMP_pressure;BME280_temperature;BME280_humidity;BME280_pressure;Samples;Min_cycle;Max_cycle;Signal;HPM_P1;HPM_P2
2021/03/29 00:03:09;;;;;;;103.93;43.03;;;;;;;-0.30;66.79;100440.24;4184409;83;21393;-90
2021/03/29 00:09:14;;;;;;;90.13;37.20;;;;;;;-0.44;66.64;100437.03;4164007;82;21224;-91
2021/03/29 00:15:19;;;;;;;89.33;38.70;;;;;;;-0.56;67.08;100433.77;4225205;82;21164;-90
2021/03/29 00:21:21;;;;;;;90.40;39.33;;;;;;;-0.45;67.34;100440.25;4242324;82;21210;-91
2021/03/29 00:27:25;;;;;;;83.43;37.83;;;;;;;-0.50;67.17;100441.58;4248336;82;21162;-90
2021/03/29 00:33:29;;;;;;;84.13;38.67;;;;;;;-0.67;67.08;100449.09;4276674;81;21205;-89
2021/03/29 00:39:32;;;;;;;92.73;40.97;;;;;;;-0.83;67.46;100446.65;4139461;83;21210;-90
2021/03/29 00:45:35;;;;;;;95.17;40.83;;;;;;;-0.77;67.88;100452.30;4315895;79;21272;-91
2021/03/29 00:51:39;;;;;;;99.20;39.17;;;;;;;-0.79;67.91;100451.75;4335646;80;21202;-90
2021/03/29 00:57:44;;;;;;;89.90;38.97;;;;;;;-0.82;68.10;100459.02;4306309;80;21244;-90
2021/03/29 01:03:58;;;;;;;79.60;35.80;;;;;;;-0.91;68.15;100464.08;4314262;80;21243;-89
2021/03/29 03:05:52;;;;;;;89.40;39.03;;;;;;;-0.58;71.65;100446.70;4361394;79;78287;-82
2021/03/29 03:11:54;;;;;;;93.87;40.17;;;;;;;-0.50;72.10;100451.00;4298472;80;21800;-83
2021/03/29 03:18:00;;;;;;;84.90;38.97;;;;;;;-0.34;72.14;100452.63;4299773;80;21758;-83
2021/03/29 03:24:13;;;;;;;86.83;36.20;;;;;;;-0.16;72.42;100453.99;4331670;80;21204;-83
2021/03/29 03:30:25;;;;;;;87.93;40.30;;;;;;;0.03;72.40;100447.52;4297263;80;21332;-83
2021/03/29 03:36:29;;;;;;;80.87;40.57;;;;;;;0.18;72.19;100455.56;4313693;80;21673;-83
2021/03/29 03:42:32;;;;;;;85.90;38.60;;;;;;;0.28;72.39;100458.25;4308781;80;21332;-83
2021/03/29 03:48:34;;;;;;;77.40;37.43;;;;;;;0.33;72.26;100455.00;4300117;80;21657;-83
2021/03/29 03:54:39;;;;;;;86.47;36.77;;;;;;;0.37;72.21;100456.08;4302154;80;21201;-83
2021/03/29 04:00:41;;;;;;;84.80;37.67;;;;;;;0.44;71.99;100454.45;4318629;80;21179;-83
2021/03/29 04:06:42;;;;;;;90.50;39.87;;;;;;;0.53;72.22;100456.85;4286506;80;21178;-83
2021/03/29 04:12:50;;;;;;;89.80;39.80;;;;;;;0.44;72.06;100464.67;4296258;80;21368;-84
2021/03/29 04:18:51;;;;;;;78.27;33.10;;;;;;;0.49;72.16;100455.23;4309352;80;21295;-83
2021/03/29 04:24:52;;;;;;;71.47;32.00;;;;;;;0.54;72.29;100463.31;4318544;80;22365;-84
2021/03/29 04:30:54;;;;;;;83.37;35.00;;;;;;;0.61;71.93;100467.07;4336670;80;21229;-85
2021/03/29 04:36:59;;;;;;;60.23;28.23;;;;;;;0.63;72.03;100470.27;4309282;80;21756;-84
2021/03/29 04:43:01;;;;;;;59.33;28.13;;;;;;;0.50;71.68;100478.39;3991597;84;40913;-85
2021/03/29 04:49:02;;;;;;;68.53;33.00;;;;;;;0.46;72.16;100477.34;4004688;86;21264;-85
2021/03/29 04:55:05;;;;;;;74.73;34.53;;;;;;;0.61;72.42;100485.38;3989340;86;21198;-85
2021/03/29 05:01:07;;;;;;;76.67;31.63;;;;;;;0.73;72.73;100485.08;3982746;87;21425;-85
2021/03/29 05:07:10;;;;;;;68.20;32.00;;;;;;;0.77;72.86;100499.08;3995710;86;21647;-84
2021/03/29 05:13:18;;;;;;;71.87;33.43;;;;;;;0.81;73.13;100496.65;3966631;86;21241;-84
2021/03/29 05:19:20;;;;;;;61.63;28.40;;;;;;;0.90;73.08;100500.38;3978579;86;21249;-85
2021/03/29 05:25:22;;;;;;;61.67;28.23;;;;;;;0.93;72.80;100501.18;3978122;87;21366;-84
2021/03/29 05:31:23;;;;;;;64.62;29.23;;;;;;;1.07;73.43;100492.23;3986492;87;21689;-85
2021/03/29 05:37:25;;;;;;;61.33;28.05;;;;;;;1.38;73.65;100484.78;3989356;86;21185;-84
2021/03/29 05:43:28;;;;;;;64.75;30.00;;;;;;;1.55;73.75;100490.08;3981734;86;21685;-84
2021/03/29 05:49:33;;;;;;;81.08;35.60;;;;;;;1.71;73.50;100483.25;3982345;86;21390;-85
2021/03/29 05:55:38;;;;;;;106.50;50.55;;;;;;;1.97;73.72;100478.72;3978036;85;21364;-85
2021/03/29 06:01:49;;;;;;;89.83;43.85;;;;;;;2.17;73.67;100483.94;3992851;85;21229;-86
2021/03/29 06:07:59;;;;;;;;;;;;;;;2.29;73.36;100472.73;3972775;86;21713;-86
2021/03/29 06:14:15;;;;;;;86.47;37.75;;;;;;;2.66;74.03;100499.95;3988472;85;21054;-87
2021/03/29 06:20:16;;;;;;;80.57;35.23;;;;;;;2.89;73.76;100513.48;3996211;86;21236;-87
2021/03/29 06:26:32;;;;;;;74.12;34.75;;;;;;;2.98;73.25;100507.69;3975882;86;21188;-86
2021/03/29 06:32:33;;;;;;;75.00;34.40;;;;;;;3.15;73.68;100505.31;3974083;85;21379;-86
2021/03/29 06:38:36;;;;;;;73.62;34.27;;;;;;;3.24;73.44;100489.25;3976235;87;21265;-86
2021/03/29 06:44:40;;;;;;;80.15;38.73;;;;;;;3.41;73.57;100494.16;3980374;85;21233;-87
2021/03/29 06:50:42;;;;;;;90.92;41.53;;;;;;;3.61;73.64;100499.28;3991369;86;21394;-86
2021/03/29 06:56:47;;;;;;;104.70;44.93;;;;;;;3.82;73.72;100494.63;3984517;86;21700;-87
2021/03/29 07:03:10;;;;;;;96.02;44.90;;;;;;;3.98;73.30;100486.52;3970326;86;21338;-86
2021/03/29 07:09:12;;;;;;;90.77;42.75;;;;;;;4.24;73.49;100484.20;3971012;86;21775;-89
2021/03/29 07:15:15;;;;;;;65.40;32.10;;;;;;;4.59;73.70;100479.48;3976866;86;21189;-88
2021/03/29 07:21:17;;;;;;;52.48;24.18;;;;;;;4.99;73.27;100477.91;3972402;87;21188;-87
2021/03/29 07:27:19;;;;;;;53.73;23.22;;;;;;;5.53;72.67;100485.42;3975633;86;21743;-87
2021/03/29 07:33:21;;;;;;;50.23;23.45;;;;;;;5.91;71.90;100484.03;3970842;86;21247;-86
2021/03/29 07:39:41;;;;;;;55.38;23.40;;;;;;;6.16;71.69;100497.01;3970522;86;21370;-86
2021/03/29 07:45:51;;;;;;;47.25;21.17;;;;;;;6.34;71.50;100491.13;3975830;87;21221;-87
2021/03/29 07:52:33;;;;;;;48.50;22.98;;;;;;;6.51;70.95;100498.03;3968984;85;21696;-88
2021/03/29 07:58:53;;;;;;;45.08;21.35;;;;;;;6.71;71.14;100492.59;3975301;84;21370;-88
2021/03/29 08:05:07;;;;;;;35.63;17.92;;;;;;;6.98;70.96;100498.66;3996500;86;21177;-87
2021/03/29 08:11:20;;;;;;;18.57;9.10;;;;;;;7.36;71.37;100498.92;3978868;86;21363;-87
2021/03/29 08:17:52;;;;;;;15.70;7.35;;;;;;;7.92;69.99;100500.19;3972993;86;21604;-88
2021/03/29 08:23:59;;;;;;;22.45;8.20;;;;;;;8.45;69.69;100496.55;3961691;87;21647;-87
2021/03/29 08:30:14;;;;;;;18.07;8.50;;;;;;;8.99;69.15;100482.64;3978264;86;21304;-88
2021/03/29 08:36:41;;;;;;;17.52;8.20;;;;;;;9.55;66.84;100489.76;4483458;79;23813;-87
2021/03/29 08:42:48;;;;;;;17.57;7.87;;;;;;;9.97;67.12;100476.09;4392073;80;21984;-87
2021/03/29 09:04:01;;;;;;;12.58;5.90;;;;;;;10.32;62.45;100476.83;4387158;80;21252;-86
2021/03/29 09:10:25;;;;;;;9.43;4.55;;;;;;;10.39;62.74;100485.86;4377941;80;21192;-87
2021/03/29 09:16:26;;;;;;;12.98;4.87;;;;;;;10.54;61.74;100486.02;4399173;80;21701;-87
2021/03/29 09:22:32;;;;;;;11.88;4.65;;;;;;;10.84;61.67;100485.27;4390874;80;21753;-87
2021/03/29 09:34:59;;;;;;;11.05;4.75;;;;;;;11.04;59.24;100490.66;4586277;76;22659;-92
2021/03/29 09:41:19;;;;;;;10.25;4.12;;;;;;;11.20;58.96;100494.11;4489190;78;21806;-91
2021/03/29 09:47:21;;;;;;;9.80;4.20;;;;;;;11.49;58.94;100489.73;4486928;78;21192;-90
2021/03/29 09:53:25;;;;;;;8.70;4.80;;;;;;;11.77;56.80;100484.58;4492146;78;21172;-90
2021/03/29 09:59:37;;;;;;;11.18;4.72;;;;;;;12.04;55.41;100481.05;4487867;78;21191;-91
2021/03/29 10:05:38;;;;;;;12.35;5.05;;;;;;;12.55;52.74;100466.97;4490708;78;22091;-91
2021/03/29 10:11:48;;;;;;;10.03;4.70;;;;;;;13.07;55.84;100463.43;4482984;78;21212;-91
2021/03/29 10:18:13;;;;;;;10.98;4.47;;;;;;;13.86;55.25;100457.37;4479474;78;21341;-91
2021/03/29 10:24:16;;;;;;;14.58;4.10;;;;;;;14.44;50.85;100449.89;4381675;80;21223;-91
2021/03/29 10:30:25;;;;;;;11.73;4.10;;;;;;;15.30;49.16;100448.21;4386890;80;21183;-90
2021/03/29 10:36:29;;;;;;;11.93;4.28;;;;;;;15.32;45.58;100446.66;4288058;81;21208;-91
2021/03/29 10:42:35;;;;;;;10.85;4.40;;;;;;;15.37;49.25;100447.73;4357601;80;21675;-90
2021/03/29 10:48:38;;;;;;;11.83;4.10;;;;;;;15.14;47.42;100442.05;4305892;81;21370;-90
2021/03/29 10:54:40;;;;;;;9.73;4.87;;;;;;;15.08;47.24;100430.52;4307060;81;21652;-91
2021/03/29 11:00:41;;;;;;;12.50;4.90;;;;;;;15.47;46.40;100433.30;4307512;81;21200;-90
2021/03/29 11:06:43;;;;;;;11.88;4.62;;;;;;;15.83;46.27;100435.97;4302846;81;21212;-92
2021/03/29 11:12:44;;;;;;;9.78;4.20;;;;;;;15.62;45.58;100428.20;4307618;81;21375;-90
2021/03/29 11:18:47;;;;;;;10.20;4.10;;;;;;;15.82;45.14;100426.08;4308967;81;21165;-92
2021/03/29 11:24:48;;;;;;;8.05;4.22;;;;;;;15.98;45.02;100423.12;4300617;81;21679;-91
2021/03/29 11:30:50;;;;;;;9.60;4.10;;;;;;;16.05;43.56;100424.02;4306037;81;21216;-91
2021/03/29 11:36:52;;;;;;;11.28;4.42;;;;;;;15.56;42.96;100419.23;4295567;81;21767;-91
2021/03/29 11:42:54;;;;;;;13.32;4.53;;;;;;;15.75;41.33;100422.44;4306080;81;21196;-90
2021/03/29 11:48:56;;;;;;;11.95;4.65;;;;;;;15.68;41.08;100422.56;4366352;80;21148;-90
2021/03/29 11:54:58;;;;;;;12.30;3.52;;;;;;;15.68;41.22;100416.84;4376428;80;21210;-91
2021/03/29 12:01:06;;;;;;;6.03;3.17;;;;;;;15.97;42.56;100418.78;4377134;80;21652;-92
2021/03/29 12:07:18;;;;;;;13.15;5.00;;;;;;;16.04;42.12;100420.22;4371628;80;21192;-92
2021/03/29 12:13:16;;;;;;;18.10;6.55;;;;;;;15.82;42.18;100410.89;4384483;80;21311;-91
2021/03/29 12:19:19;;;;;;;9.85;4.58;;;;;;;15.72;42.31;100417.09;4383802;80;21216;-95
2021/03/29 12:25:23;;;;;;;12.23;4.00;;;;;;;15.64;42.51;100419.55;4385642;80;21349;-92
2021/03/29 12:31:24;;;;;;;14.58;5.65;;;;;;;15.58;41.74;100411.39;4302974;81;21672;-92
2021/03/29 12:37:31;;;;;;;9.78;4.10;;;;;;;15.32;42.37;100401.71;4306738;81;21204;-90
2021/03/29 12:43:46;;;;;;;6.95;3.05;;;;;;;15.26;41.82;100398.49;4306185;81;21739;-92
2021/03/29 12:49:46;;;;;;;13.93;4.25;;;;;;;15.23;42.41;100397.86;4385623;80;21354;-91
2021/03/29 12:55:47;;;;;;;9.55;3.90;;;;;;;15.39;42.40;100398.49;4304878;81;21169;-92
2021/03/29 13:01:50;;;;;;;11.97;5.25;;;;;;;15.50;42.55;100393.92;4380400;80;21164;-92
2021/03/29 13:07:59;;;;;;;9.53;3.45;;;;;;;15.48;42.38;100397.66;4361113;80;21323;-93
2021/03/29 13:14:00;;;;;;;7.90;3.30;;;;;;;15.38;41.63;100398.87;4362282;80;21891;-91
2021/03/29 13:20:06;;;;;;;10.45;3.58;;;;;;;15.31;41.98;100400.94;4357025;80;21268;-91
2021/03/29 13:26:09;;;;;;;7.85;3.70;;;;;;;15.24;42.13;100404.96;4353670;80;21220;-92
2021/03/29 13:32:12;;;;;;;10.63;4.12;;;;;;;15.18;42.26;100397.37;4380797;80;21374;-92
2021/03/29 13:38:14;;;;;;;9.78;5.20;;;;;;;15.24;42.77;100394.50;4351139;80;21214;-92
2021/03/29 13:44:16;;;;;;;11.40;4.22;;;;;;;15.36;42.88;100396.45;4352221;80;21697;-91
2021/03/29 13:50:21;;;;;;;13.18;4.72;;;;;;;15.29;42.25;100388.09;4371468;80;22130;-92
2021/03/29 13:56:23;;;;;;;10.23;4.45;;;;;;;15.07;42.69;100396.41;4332841;80;21171;-91
2021/03/29 14:02:25;;;;;;;16.45;4.50;;;;;;;14.90;42.62;100395.56;4381723;80;21671;-92
2021/03/29 14:08:26;;;;;;;11.00;4.53;;;;;;;14.68;43.34;100399.94;4380698;80;21327;-92
2021/03/29 14:14:28;;;;;;;18.32;5.47;;;;;;;14.51;43.49;100401.00;4382005;80;21194;-91
2021/03/29 14:20:31;;;;;;;12.93;5.35;;;;;;;14.16;43.96;100406.63;4342717;80;21209;-91
2021/03/29 14:26:33;;;;;;;14.13;5.30;;;;;;;14.06;44.82;100405.86;4344538;80;21241;-91
2021/03/29 14:32:37;;;;;;;10.68;5.03;;;;;;;13.95;45.24;100399.35;4352504;80;21263;-92
2021/03/29 14:44:59;;;;;;;14.78;4.40;;;;;;;13.77;46.19;100407.81;4352012;80;21196;-92
2021/03/29 14:51:00;;;;;;;13.30;5.40;;;;;;;13.39;47.49;100414.08;4356079;80;21326;-92
2021/03/29 14:57:05;;;;;;;13.30;5.47;;;;;;;12.94;48.06;100419.28;4344677;80;21250;-92
2021/03/29 15:03:13;;;;;;;16.00;5.47;;;;;;;12.72;49.67;100423.26;4347595;80;21204;-93
2021/03/29 15:09:14;;;;;;;12.13;5.97;;;;;;;12.56;50.72;100421.85;4381588;80;21200;-92
2021/03/29 15:15:16;;;;;;;14.87;7.25;;;;;;;12.35;51.97;100428.98;4342696;80;21232;-90
2021/03/29 15:21:17;;;;;;;17.95;7.22;;;;;;;12.20;53.25;100427.59;4380393;80;21170;-90
2021/03/29 15:27:19;;;;;;;21.77;7.65;;;;;;;11.95;54.48;100423.36;4349820;80;21185;-93
2021/03/29 15:33:20;;;;;;;15.20;7.42;;;;;;;11.74;55.33;100422.74;4294228;80;35517;-92
2021/03/29 15:39:22;;;;;;;15.80;7.33;;;;;;;11.68;56.05;100411.20;4079861;86;21794;-92
2021/03/29 15:45:24;;;;;;;22.40;8.78;;;;;;;11.60;56.65;100414.88;4077597;86;21395;-90
2021/03/29 15:51:26;;;;;;;19.55;9.23;;;;;;;11.46;58.27;100414.45;4063019;86;21207;-91
2021/03/29 15:57:39;;;;;;;18.70;10.10;;;;;;;11.47;58.97;100414.67;4120798;85;21357;-91
2021/03/29 16:03:39;;;;;;;21.45;11.22;;;;;;;11.33;62.69;100409.33;4055509;86;21222;-90
2021/03/29 16:09:44;;;;;;;23.57;10.90;;;;;;;11.03;61.94;100408.23;4079100;86;21258;-90
2021/03/29 16:15:46;;;;;;;20.85;9.80;;;;;;;10.73;62.85;100394.55;4057422;86;21247;-90
2021/03/29 16:21:48;;;;;;;23.60;12.75;;;;;;;10.63;62.98;100387.36;4058414;86;21999;-89
2021/03/29 16:27:54;;;;;;;29.95;14.93;;;;;;;10.49;66.93;100385.52;4105440;85;21270;-89
2021/03/29 16:33:56;;;;;;;45.00;19.60;;;;;;;10.25;67.39;100378.07;4101782;85;21183;-89
2021/03/29 16:39:58;;;;;;;29.32;14.93;;;;;;;10.19;68.74;100372.59;4105761;85;21256;-92
2021/03/29 16:46:00;;;;;;;29.90;15.53;;;;;;;10.10;68.07;100373.23;4108420;85;21404;-90
2021/03/29 16:52:03;;;;;;;32.83;15.85;;;;;;;10.11;67.66;100367.20;4104962;85;21998;-90
2021/03/29 16:58:05;;;;;;;30.45;15.10;;;;;;;10.00;68.44;100364.07;4109089;85;22000;-89
2021/03/29 17:04:07;;;;;;;31.30;12.98;;;;;;;9.93;70.19;100365.77;4109440;84;21221;-90
2021/03/29 17:10:10;;;;;;;26.23;13.05;;;;;;;9.84;70.11;100358.19;4107237;85;21374;-89
2021/03/29 17:16:13;;;;;;;24.00;11.83;;;;;;;9.79;69.44;100359.80;4104706;85;21276;-90
2021/03/29 17:22:16;;;;;;;23.32;12.37;;;;;;;9.75;70.64;100362.39;4106988;85;21364;-89
2021/03/29 17:28:19;;;;;;;25.30;12.37;;;;;;;9.72;72.24;100371.83;4107005;85;21225;-90
2021/03/29 17:34:20;;;;;;;24.25;12.40;;;;;;;9.65;73.14;100368.85;4104567;85;21426;-90
2021/03/29 17:40:24;;;;;;;25.32;12.82;;;;;;;9.60;71.49;100380.77;4105801;85;22266;-91
2021/03/29 17:46:26;;;;;;;21.95;11.22;;;;;;;9.57;71.42;100383.39;4106350;85;21241;-90
2021/03/29 17:52:28;;;;;;;27.62;15.23;;;;;;;9.58;71.53;100386.57;4103722;85;21231;-89
2021/03/29 17:58:29;;;;;;;39.70;19.70;;;;;;;9.50;72.05;100386.11;4106243;85;21368;-91
2021/03/29 18:04:31;;;;;;;31.27;15.83;;;;;;;9.46;72.38;100393.35;4097950;85;21402;-90
2021/03/29 18:10:33;;;;;;;30.20;17.48;;;;;;;9.47;72.32;100393.58;4105825;85;22224;-90
2021/03/29 18:16:34;;;;;;;31.65;15.80;;;;;;;9.48;72.48;100397.93;4095614;85;21263;-90
2021/03/29 18:22:36;;;;;;;40.38;17.17;;;;;;;9.51;72.47;100390.98;4102377;84;21515;-92
2021/03/29 18:28:38;;;;;;;34.50;16.42;;;;;;;9.46;72.70;100397.45;4099196;85;22083;-90
2021/03/29 18:34:40;;;;;;;34.43;17.73;;;;;;;9.35;73.05;100404.45;4102926;85;21365;-90
2021/03/29 18:40:43;;;;;;;42.27;17.48;;;;;;;9.18;73.45;100403.20;4106557;85;21381;-90
2021/03/29 18:46:44;;;;;;;46.75;19.75;;;;;;;9.12;73.93;100405.91;4099879;85;21240;-91
2021/03/29 18:52:46;;;;;;;35.13;18.25;;;;;;;9.19;74.13;100397.97;4105820;85;21384;-91
2021/03/29 18:58:48;;;;;;;34.92;17.37;;;;;;;9.25;74.18;100406.78;4104072;85;21357;-90
2021/03/29 19:04:49;;;;;;;39.20;18.12;;;;;;;9.24;74.24;100412.00;4106541;85;21171;-91
2021/03/29 19:10:51;;;;;;;36.98;17.50;;;;;;;9.22;74.41;100414.28;4108193;85;21230;-90
2021/03/29 19:16:53;;;;;;;42.95;19.70;;;;;;;9.12;74.60;100421.48;4104285;85;21268;-89
2021/03/29 19:22:55;;;;;;;49.38;25.70;;;;;;;9.12;75.17;100429.12;4109545;85;21680;-89
2021/03/29 19:28:56;;;;;;;48.68;26.05;;;;;;;9.16;75.40;100419.71;4110025;84;21223;-91
2021/03/29 19:34:58;;;;;;;44.83;21.23;;;;;;;9.17;75.37;100430.30;4103533;85;21840;-89
2021/03/29 19:41:00;;;;;;;30.17;15.32;;;;;;;9.11;75.70;100433.55;4103810;85;21781;-90
2021/03/29 19:47:02;;;;;;;31.77;16.37;;;;;;;9.01;75.70;100426.53;4105409;85;21238;-90
2021/03/29 19:53:04;;;;;;;37.73;19.23;;;;;;;8.94;76.10;100427.61;4104286;85;21384;-89
2021/03/29 19:59:07;;;;;;;43.38;20.88;;;;;;;8.93;76.59;100428.75;4104817;85;21223;-89
2021/03/29 20:05:16;;;;;;;46.25;23.35;;;;;;;8.90;76.98;100428.04;4105792;85;21385;-92
2021/03/29 20:11:19;;;;;;;34.95;20.00;;;;;;;8.92;77.14;100429.89;4105920;85;21222;-90
2021/03/29 20:17:22;;;;;;;41.50;23.92;;;;;;;8.91;77.47;100432.36;4106099;85;21245;-89
2021/03/29 20:23:24;;;;;;;38.67;22.42;;;;;;;8.95;77.65;100423.77;4103550;85;21345;-91
2021/03/29 20:29:26;;;;;;;42.75;19.80;;;;;;;8.97;77.91;100417.97;4106272;85;21400;-88
2021/03/29 20:35:30;;;;;;;30.52;17.90;;;;;;;8.93;77.89;100419.19;4105398;85;21768;-89
2021/03/29 20:41:31;;;;;;;27.25;12.53;;;;;;;8.84;77.99;100406.70;4105626;85;21848;-92
2021/03/29 20:47:33;;;;;;;21.10;10.93;;;;;;;8.78;78.06;100403.37;4104756;85;21371;-89
2021/03/29 20:53:35;;;;;;;20.15;10.68;;;;;;;8.77;78.50;100406.44;4103037;85;21250;-91
2021/03/29 20:59:37;;;;;;;26.07;12.78;;;;;;;8.78;78.72;100411.56;4103354;85;21195;-91
2021/03/29 21:05:39;;;;;;;22.65;12.30;;;;;;;8.80;79.00;100417.48;4105073;85;21365;-90
2021/03/29 21:11:41;;;;;;;21.35;11.22;;;;;;;8.74;78.97;100415.28;4091556;85;21249;-92
2021/03/29 21:17:43;;;;;;;22.22;12.60;;;;;;;8.81;78.94;100416.92;4091223;85;21239;-90
2021/03/29 21:23:45;;;;;;;31.20;15.75;;;;;;;8.88;78.91;100418.59;4089561;85;21233;-91
2021/03/29 21:30:03;;;;;;;34.73;17.73;;;;;;;8.87;79.06;100423.23;4091457;85;21367;-89
2021/03/29 21:36:07;;;;;;;37.15;17.98;;;;;;;8.81;79.28;100424.56;4073624;86;21223;-92
2021/03/29 21:42:09;;;;;;;28.90;17.25;;;;;;;8.70;79.34;100425.24;4026418;87;21238;-91
2021/03/29 21:48:10;;;;;;;35.17;19.73;;;;;;;8.75;79.35;100427.80;4055230;85;21372;-90
2021/03/29 21:54:12;;;;;;;33.50;17.45;;;;;;;8.68;79.61;100435.12;4029265;87;21407;-90
2021/03/29 22:00:22;;;;;;;35.03;18.20;;;;;;;8.71;79.59;100431.74;4029918;87;21232;-91
2021/03/29 22:06:24;;;;;;;28.00;17.00;;;;;;;8.72;79.82;100438.79;4029556;86;21205;-89
2021/03/29 22:12:25;;;;;;;36.53;18.45;;;;;;;8.72;79.80;100437.42;4029666;87;21279;-90
2021/03/29 22:18:27;;;;;;;34.80;18.70;;;;;;;8.76;79.88;100433.48;4029431;87;21679;-90
2021/03/29 22:24:29;;;;;;;29.32;17.65;;;;;;;8.76;79.72;100437.02;4028180;87;21315;-89
2021/03/29 22:47:15;;;;;;;31.62;17.95;;;;;;;8.69;81.08;100452.32;4322695;81;23553;-89
2021/03/29 22:53:18;;;;;;;29.90;16.80;;;;;;;8.62;80.95;100447.36;4279895;82;21228;-90
2021/03/29 22:59:20;;;;;;;45.75;26.33;;;;;;;8.63;81.13;100438.62;4272062;82;22179;-89
2021/03/29 23:05:22;;;;;;;51.45;27.77;;;;;;;8.68;81.41;100441.14;4351249;81;21231;-90
2021/03/29 23:11:24;;;;;;;54.67;29.12;;;;;;;8.75;81.50;100449.09;4355113;81;21231;-89
2021/03/29 23:17:25;;;;;;;51.95;32.17;;;;;;;8.80;81.64;100453.56;4354436;81;21641;-92
2021/03/29 23:23:27;;;;;;;63.68;36.50;;;;;;;8.77;81.74;100450.13;4291408;81;21244;-90
2021/03/29 23:29:29;;;;;;;71.90;40.40;;;;;;;8.79;81.82;100446.48;4332072;81;21644;-90
2021/03/29 23:35:33;;;;;;;63.25;37.48;;;;;;;8.83;81.85;100448.80;4323138;81;21212;-88
2021/03/29 23:41:35;;;;;;;53.70;32.17;;;;;;;8.80;81.90;100452.97;4363038;81;21188;-89
2021/03/29 23:47:36;;;;;;;56.00;31.52;;;;;;;8.84;81.97;100445.74;4288585;82;21216;-89
2021/03/29 23:53:38;;;;;;;46.00;26.75;;;;;;;8.89;82.00;100442.03;4202270;83;21321;-90
2021/03/29 23:59:39;;;;;;;53.65;26.48;;;;;;;8.83;82.05;100426.96;4278801;82;21403;-90
